• Join FlightAware (Why Join?)
  • Login
  • US Flag 
11:07AM EDT


 

Airport Tracker/Info


-or-


 

Live Flight TrackerFlight Track Log ✈ N401NS ✈ 20-Nov-2013 ✈ KGGE - KFTY

Flight Track Log - Related Links

Times and Time Zones

All times are in EST time to prevent confusion due to time zone crossing. See the N401NS flight status page for this flight to view local times or setup timezone preferences in your user account.

Time Position Orientation Groundspeed Altitude Reporting Facility
EST Latitude Longitude Course Direction KTS MPH feet Rate Location/Type
03:29PM 33.3997 -79.3944 277° West 200 230 6,200  Level Jacksonville Center
03:30PM 33.3950 -79.4444 264° West 166 191 9,100 2,880 Climbing Jacksonville Center
03:31PM 33.4006 -79.4992 277° West 166 191 12,000 1,440 Climbing Jacksonville Center
03:32PM 33.4086 -79.5683 278° West 179 206 12,000  Level Jacksonville Center
03:33PM 33.3742 -79.8961 277° West  Level Estimated
03:33PM 33.4192 -79.6550 278° West 225 259 12,000  Level Jacksonville Center
03:34PM 33.3865 -80.0114 277° West  Level FlightAware Approximate
03:34PM 33.4319 -79.7467 280° West 259 298 12,000  Level Jacksonville Center
03:35PM 33.4428 -79.8408 278° West 283 326 12,000  Level Jacksonville Center
03:36PM 33.4531 -79.9303 278° West 283 326 12,000  Level Jacksonville Center
03:37PM 33.4656 -80.0169 280° West 283 326 12,000  Level Jacksonville Center
03:38PM 33.4761 -80.1086 278° West 278 320 12,000  Level Jacksonville Center
03:39PM 33.4864 -80.1981 278° West 278 320 12,000  Level Jacksonville Center
03:40PM 33.4986 -80.2897 279° West 278 320 12,000  Level Jacksonville Center
03:41PM 33.5067 -80.3792 276° West 273 314 12,000  Level Jacksonville Center
03:42PM 33.5167 -80.4611 278° West 273 314 12,000  Level Jacksonville Center
03:43PM 33.5289 -80.5531 279° West 273 314 12,000  Level Jacksonville Center
03:44PM 33.5389 -80.6400 278° West 273 314 12,000  Level Jacksonville Center
03:45PM 33.5508 -80.7317 279° West 273 314 12,000  Level Jacksonville Center
03:46PM 33.5586 -80.8239 276° West 273 314 12,000  Level Jacksonville Center
03:47PM 33.5706 -80.9108 279° West 273 314 12,000  Level Jacksonville Center
03:48PM 33.5803 -81.0028 277° West 273 314 12,000  Level Jacksonville Center
03:49PM 33.5878 -81.0950 276° West 273 314 12,000  Level Jacksonville Center
03:50PM 33.5994 -81.1844 279° West 273 314 12,000  Level Jacksonville Center
03:51PM 33.6089 -81.2742 277° West 273 314 12,000  Level Jacksonville Center
03:52PM 33.6228 -81.3736 280° West 273 314 12,000  Level Jacksonville Center
03:53PM 33.6322 -81.4656 277° West 273 314 12,000  Level Jacksonville Center
03:54PM 33.6414 -81.5553 277° West 273 314 12,000  Level Jacksonville Center
03:55PM 33.6508 -81.6425 277° West 273 314 12,000  Level Jacksonville Center
03:56PM 33.6578 -81.7303 275° West 267 307 12,000  Level Atlanta Center
03:57PM 33.6700 -81.8222 279° West 267 307 12,000 -60 Level Atlanta Center
03:58PM 33.6797 -81.9094 278° West 272 313 11,900  Descending Atlanta Center
03:59PM 33.6875 -81.9967 276° West 272 313 12,000  Climbing Atlanta Center
04:00PM 33.6972 -82.0864 277° West 272 313 12,000  Level Atlanta Center
04:01PM 33.7050 -82.1733 276° West 272 313 12,000 -60 Level Atlanta Center
04:02PM 33.7083 -82.2608 273° West 272 313 11,900  Descending Atlanta Center
04:03PM 33.6867 -82.3486 253° West 278 320 12,000 -420 Climbing Atlanta Center
04:04PM 33.7169 -82.4331 293° West 260 299 11,100 -540 Descending Atlanta Center
04:05PM 33.7369 -82.5275 284° West 276 318 11,000 -480 Descending Atlanta Center
04:06PM 33.7653 -82.6194 290° West 276 318 10,200 -600 Descending Atlanta Center
04:07PM 33.7869 -82.7117 286° West 282 325 9,900 -120 Descending Atlanta Center
04:08PM 33.8089 -82.7911 288° West 282 325 10,000  Climbing Atlanta Center
04:09PM 33.8283 -82.8808 285° West 282 325 10,000  Level Atlanta Center
04:10PM 33.8522 -82.9683 288° West 282 325 10,000  Level Atlanta Center
04:11PM 33.8758 -83.0581 288° West 282 325 10,000  Level Atlanta Center
04:12PM 33.8994 -83.1453 288° West 282 325 10,000  Level Atlanta Center
04:13PM 33.9231 -83.2353 288° West 282 325 10,000  Level Atlanta Center
04:14PM 33.9508 -83.3225 291° West 282 325 10,000 -600 Level Atlanta Center
04:15PM 33.9783 -83.4125 290° West 282 325 8,900 -1,200 Descending Atlanta Center
04:16PM 34.0081 -83.4975 293° West 287 330 7,600 -1,380 Descending Atlanta Center
04:17PM 34.0333 -83.5875 289° West 287 330 6,200 -840 Descending Atlanta Center
04:18PM 34.0567 -83.6703 289° West 282 325 6,000 -120 Descending Atlanta Center
04:19PM 34.0797 -83.7503 289° West 261 300 6,000  Level Atlanta Center
04:20PM 34.1050 -83.8356 290° West 261 300 6,000  Level Atlanta Center
04:21PM 34.1239 -83.9183 285° West 267 307 6,000  Level Atlanta Center
04:22PM 34.1136 -84.0036 262° West 257 296 6,000  Level Atlanta Center
04:23PM 34.1031 -84.0914 262° West 257 296 6,000  Level Atlanta Center
04:24PM 34.0947 -84.1717 263° West 247 284 6,000  Level Atlanta Center
04:25PM 34.0989 -84.2444 274° West 218 251 6,000  Level Atlanta Center
04:26PM 34.1000 -84.3167 271° West 187 215 6,000  Level Atlanta TRACON
04:27PM 34.1000 -84.3833 270° West 185 213 6,000  Level Atlanta TRACON
04:28PM 34.0964 -84.4300 265° West 191 220 6,000  Level Atlanta Center
04:29PM 34.1022 -84.4953 276° West 191 220 6,000  Level Atlanta Center
04:30PM 34.1083 -84.5581 277° West 196 226 6,000  Level Atlanta Center
04:31PM 34.0914 -84.6106 249° West 190 219 6,000 -300 Level Atlanta Center
04:32PM 34.0517 -84.6431 214° Southwest 172 198 5,500 -900 Descending Atlanta Center
04:33PM 34.0036 -84.6553 192° South 172 198 4,200 -1,140 Descending Atlanta Center
04:34PM 33.9514 -84.6700 193° South 189 217 3,300 -660 Descending Atlanta Center
04:35PM 33.9056 -84.6369 149° Southeast 191 220 2,900 -300 Descending Atlanta Center
04:36PM 33.8556 -84.6042 151° Southeast 197 227 2,800 -360 Descending Atlanta Center
04:37PM 33.8119 -84.5764 152° Southeast 195 224 2,200 -720 Descending Atlanta Center
04:38PM 33.7786 -84.5561 153° Southeast 163 188 1,400 -600 Descending Atlanta Center
04:39PM 33.7472 -84.5308 146° Southeast 135 155 1,100 -300 Descending Atlanta Center
04:41PM 33.7791 -84.5214 14° North  Level Estimated